Time;durP1;ratioP1;P1;durP2;ratioP2;P2;SDS_P1;SDS_P2;PMS_P1;PMS_P2;Temp;Humidity;BMP_temperature;BMP_pressure;BME280_temperature;BME280_humidity;BME280_pressure;Samples;Min_cycle;Max_cycle;Signal;HPM_P1;HPM_P2
2022/09/27 00:01:33;;;;;;;;;;;10.00;99.90;;;;;;5035577;28;1048;-60
2022/09/27 00:03:59;;;;;;;;;;;10.00;99.90;;;;;;5053797;28;1012;-60
2022/09/27 00:06:27;;;;;;;;;;;9.90;99.90;;;;;;5054103;28;1024;-60
2022/09/27 00:08:53;;;;;;;;;;;10.00;99.90;;;;;;5053225;28;1142;-60
2022/09/27 00:11:24;;;;;;;;;;;9.90;99.90;;;;;;5035634;28;1020;-60
2022/09/27 00:13:49;;;;;;;;;;;10.00;99.90;;;;;;5053472;28;1909;-60
2022/09/27 00:16:15;;;;;;;;;;;10.10;99.90;;;;;;5052215;28;1071;-60
2022/09/27 00:18:41;;;;;;;;;;;10.00;99.90;;;;;;5044749;28;1135;-60
2022/09/27 00:21:09;;;;;;;;;;;10.00;99.90;;;;;;5033968;28;1280;-60
2022/09/27 00:23:34;;;;;;;;;;;10.00;99.90;;;;;;5015555;28;1036;-60
2022/09/27 00:26:00;;;;;;;;;;;9.90;99.90;;;;;;5019645;28;1172;-60
2022/09/27 00:28:26;;;;;;;;;;;9.80;99.90;;;;;;5053664;28;984;-60
2022/09/27 00:30:53;;;;;;;;;;;9.80;99.90;;;;;;5035391;28;1048;-60
2022/09/27 00:33:18;;;;;;;;;;;9.80;99.90;;;;;;5019608;28;1633;-60
2022/09/27 00:35:44;;;;;;;;;;;9.80;99.90;;;;;;5027599;28;1914;-60
2022/09/27 00:38:10;;;;;;;;;;;9.80;99.90;;;;;;5057138;28;770;-60
2022/09/27 00:40:36;;;;;;;;;;;9.70;99.90;;;;;;5036903;28;1192;-60
2022/09/27 00:43:02;;;;;;;;;;;9.80;99.90;;;;;;5036810;28;1095;-60
2022/09/27 00:45:27;;;;;;;;;;;9.70;99.90;;;;;;5056332;28;1092;-60
2022/09/27 00:47:55;;;;;;;;;;;9.70;99.90;;;;;;5055811;28;916;-60
2022/09/27 00:50:28;;;;;;;;;;;9.70;99.90;;;;;;5039335;28;1259;-60
2022/09/27 00:52:58;;;;;;;;;;;9.70;99.90;;;;;;5056987;28;1138;-60
2022/09/27 00:55:27;;;;;;;;;;;9.70;99.90;;;;;;5056413;28;1981;-60
2022/09/27 00:57:52;;;;;;;;;;;9.70;99.90;;;;;;5056816;28;1023;-60
2022/09/27 01:00:20;;;;;;;;;;;9.80;99.90;;;;;;5055900;28;1009;-60
2022/09/27 01:02:47;;;;;;;;;;;9.80;99.90;;;;;;5040326;28;1154;-60
2022/09/27 01:05:14;;;;;;;;;;;9.80;99.90;;;;;;5035340;28;1088;-60
2022/09/27 01:07:40;;;;;;;;;;;9.80;99.90;;;;;;5035632;28;1115;-60
2022/09/27 01:10:07;;;;;;;;;;;9.80;99.90;;;;;;5022442;28;1175;-60
2022/09/27 01:12:47;;;;;;;;;;;9.80;99.90;;;;;;5056601;28;874;-60
2022/09/27 01:15:19;;;;;;;;;;;9.80;99.90;;;;;;5039135;28;1906;-60
2022/09/27 01:17:54;;;;;;;;;;;9.80;99.90;;;;;;5038626;28;997;-60
2022/09/27 01:20:30;;;;;;;;;;;9.80;99.90;;;;;;5020919;28;1234;-60
2022/09/27 01:23:03;;;;;;;;;;;9.80;99.90;;;;;;4999485;28;930;-60
2022/09/27 01:25:48;;;;;;;;;;;9.80;99.90;;;;;;4998615;28;1033;-60
2022/09/27 01:28:21;;;;;;;;;;;9.80;99.90;;;;;;4996747;28;1224;-60
2022/09/27 01:30:51;;;;;;;;;;;9.80;99.90;;;;;;5056550;28;914;-60
2022/09/27 01:33:28;;;;;;;;;;;9.80;99.90;;;;;;5022489;28;1669;-60
2022/09/27 01:36:01;;;;;;;;;;;9.70;99.90;;;;;;5002003;28;1902;-60
2022/09/27 01:38:28;;;;;;;;;;;9.60;99.90;;;;;;5019961;28;1164;-60
2022/09/27 01:40:56;;;;;;;;;;;9.70;99.90;;;;;;5037718;28;1404;-60
2022/09/27 01:43:52;;;;;;;;;;;9.70;99.90;;;;;;5034806;28;1216;-60
2022/09/27 01:46:27;;;;;;;;;;;9.70;99.90;;;;;;5034904;28;1143;-60
2022/09/27 01:49:15;;;;;;;;;;;9.70;99.90;;;;;;5018480;28;1053;-60
2022/09/27 01:51:43;;;;;;;;;;;9.70;99.90;;;;;;5018155;28;1075;-60
2022/09/27 01:54:11;;;;;;;;;;;9.60;99.90;;;;;;5018723;28;2013;-61
2022/09/27 01:56:54;;;;;;;;;;;9.60;99.90;;;;;;5038276;28;1041;-60
2022/09/27 01:59:28;;;;;;;;;;;9.50;99.90;;;;;;5028430;28;1199;-60
2022/09/27 02:02:15;;;;;;;;;;;9.40;99.90;;;;;;5017165;28;974;-60
2022/09/27 02:05:08;;;;;;;;;;;9.40;99.90;;;;;;5054472;28;1262;-61
2022/09/27 02:07:38;;;;;;;;;;;9.40;99.90;;;;;;5037826;28;950;-60
2022/09/27 02:10:04;;;;;;;;;;;9.30;99.90;;;;;;5037715;28;984;-60
2022/09/27 02:12:49;;;;;;;;;;;9.30;99.90;;;;;;5028194;28;1179;-60
2022/09/27 02:15:15;;;;;;;;;;;9.30;99.90;;;;;;5017784;28;1902;-60
2022/09/27 02:17:49;;;;;;;;;;;9.30;99.90;;;;;;5001541;28;1232;-60
2022/09/27 02:20:21;;;;;;;;;;;9.30;99.90;;;;;;5014999;28;1312;-60
2022/09/27 02:22:56;;;;;;;;;;;9.30;99.90;;;;;;5019895;28;1286;-60
2022/09/27 02:25:25;;;;;;;;;;;9.30;99.90;;;;;;5020778;28;1064;-60
2022/09/27 02:27:58;;;;;;;;;;;9.30;99.90;;;;;;5037941;28;1024;-60
2022/09/27 02:30:27;;;;;;;;;;;9.30;99.90;;;;;;5020204;28;1218;-60
2022/09/27 02:33:00;;;;;;;;;;;9.30;99.90;;;;;;5023642;28;1646;-60
2022/09/27 02:35:30;;;;;;;;;;;9.30;99.90;;;;;;5017605;28;1906;-60
2022/09/27 02:37:56;;;;;;;;;;;9.30;99.90;;;;;;5018079;28;1233;-60
2022/09/27 02:40:24;;;;;;;;;;;9.30;99.90;;;;;;5033649;28;1155;-59
2022/09/27 02:42:50;;;;;;;;;;;9.40;99.90;;;;;;5000935;28;1010;-60
2022/09/27 02:45:17;;;;;;;;;;;9.40;99.90;;;;;;5034491;28;997;-60
2022/09/27 02:48:01;;;;;;;;;;;9.40;99.90;;;;;;5020147;28;1179;-60
2022/09/27 02:50:39;;;;;;;;;;;9.40;99.90;;;;;;5033630;28;1119;-60
2022/09/27 02:53:34;;;;;;;;;;;9.40;99.90;;;;;;5016783;28;1313;-61
2022/09/27 02:56:24;;;;;;;;;;;9.40;99.90;;;;;;5035816;28;1159;-60
2022/09/27 02:59:10;;;;;;;;;;;9.40;99.90;;;;;;5054098;28;1084;-60
2022/09/27 03:01:58;;;;;;;;;;;9.30;99.90;;;;;;5053322;28;1048;-60
2022/09/27 03:04:35;;;;;;;;;;;9.30;99.90;;;;;;5053274;28;1032;-60
2022/09/27 03:07:01;;;;;;;;;;;9.30;99.90;;;;;;5036474;28;1131;-60
2022/09/27 03:09:28;;;;;;;;;;;9.30;99.90;;;;;;5054644;28;937;-60
2022/09/27 03:11:54;;;;;;;;;;;9.30;99.90;;;;;;5054366;28;1017;-60
2022/09/27 03:14:20;;;;;;;;;;;9.30;99.90;;;;;;5036214;28;1976;-60
2022/09/27 03:17:00;;;;;;;;;;;9.30;99.90;;;;;;5036727;28;861;-60
2022/09/27 03:19:47;;;;;;;;;;;9.30;99.90;;;;;;5045577;28;1247;-61
2022/09/27 03:22:37;;;;;;;;;;;9.20;99.90;;;;;;4999473;28;1727;-60
2022/09/27 03:25:04;;;;;;;;;;;9.30;99.90;;;;;;5019404;28;1044;-60
2022/09/27 03:27:30;;;;;;;;;;;9.30;99.90;;;;;;5036793;28;957;-60
2022/09/27 03:29:57;;;;;;;;;;;9.30;99.90;;;;;;5036429;28;795;-60
2022/09/27 03:32:22;;;;;;;;;;;9.30;99.90;;;;;;5027444;28;1229;-60
2022/09/27 03:35:05;;;;;;;;;;;9.30;99.90;;;;;;5016281;28;1902;-60
2022/09/27 03:37:31;;;;;;;;;;;9.30;99.90;;;;;;5016577;28;1252;-60
2022/09/27 03:39:57;;;;;;;;;;;9.30;99.90;;;;;;5032440;28;1013;-60
2022/09/27 03:42:22;;;;;;;;;;;9.20;99.90;;;;;;5017911;28;1219;-60
2022/09/27 03:44:51;;;;;;;;;;;9.20;99.90;;;;;;5033126;28;1099;-60
2022/09/27 03:47:17;;;;;;;;;;;9.10;99.90;;;;;;5033588;28;848;-60
2022/09/27 03:49:42;;;;;;;;;;;9.10;99.90;;;;;;5021997;28;1160;-60
2022/09/27 03:52:08;;;;;;;;;;;9.10;99.90;;;;;;5054362;28;1044;-60
2022/09/27 03:54:34;;;;;;;;;;;9.00;99.90;;;;;;5035148;28;1910;-60
2022/09/27 03:56:59;;;;;;;;;;;9.00;99.90;;;;;;5035929;28;1112;-60
2022/09/27 03:59:26;;;;;;;;;;;9.00;99.90;;;;;;5022992;28;1258;-60
2022/09/27 04:02:11;;;;;;;;;;;9.00;99.90;;;;;;5033494;28;1039;-60
2022/09/27 04:04:58;;;;;;;;;;;8.90;99.90;;;;;;5015908;28;1069;-60
2022/09/27 04:07:23;;;;;;;;;;;9.00;99.90;;;;;;5021099;28;1207;-60
2022/09/27 04:09:50;;;;;;;;;;;9.00;99.90;;;;;;5036322;28;795;-60
2022/09/27 04:12:15;;;;;;;;;;;9.00;99.90;;;;;;5040252;28;1080;-60
2022/09/27 04:14:41;;;;;;;;;;;9.00;99.90;;;;;;5055882;28;1915;-60
2022/09/27 04:17:37;;;;;;;;;;;9.00;99.90;;;;;;5057086;28;1314;-60
2022/09/27 04:20:28;;;;;;;;;;;9.00;99.90;;;;;;5036854;28;1311;-60
2022/09/27 04:22:56;;;;;;;;;;;9.00;99.90;;;;;;5015872;28;1323;-60
2022/09/27 04:25:21;;;;;;;;;;;9.00;99.90;;;;;;5024794;28;1167;-60
2022/09/27 04:27:54;;;;;;;;;;;9.10;99.90;;;;;;5019947;28;1151;-60
2022/09/27 04:30:21;;;;;;;;;;;9.00;99.90;;;;;;5019162;28;1155;-60
2022/09/27 04:33:05;;;;;;;;;;;9.00;99.90;;;;;;5019512;28;1674;-60
2022/09/27 04:38:47;;;;;;;;;;;9.00;99.90;;;;;;5037307;28;837;-60
2022/09/27 04:41:20;;;;;;;;;;;9.00;99.90;;;;;;5036508;28;1080;-60
2022/09/27 04:43:46;;;;;;;;;;;9.00;99.90;;;;;;5032840;28;1160;-60
2022/09/27 04:46:12;;;;;;;;;;;9.00;99.90;;;;;;5057129;28;1059;-60
2022/09/27 04:48:38;;;;;;;;;;;9.00;99.90;;;;;;5056103;28;1174;-60
2022/09/27 04:51:04;;;;;;;;;;;9.00;99.90;;;;;;5056095;28;1272;-60
2022/09/27 04:53:30;;;;;;;;;;;9.00;99.90;;;;;;5038631;28;1455;-60
2022/09/27 04:55:57;;;;;;;;;;;9.00;99.90;;;;;;5022680;28;1906;-60
2022/09/27 04:58:24;;;;;;;;;;;9.00;99.90;;;;;;5022505;28;993;-60
2022/09/27 05:00:52;;;;;;;;;;;9.00;99.90;;;;;;5038449;28;1163;-61
2022/09/27 05:03:49;;;;;;;;;;;9.00;99.90;;;;;;5055199;28;1608;-60
2022/09/27 05:06:15;;;;;;;;;;;9.00;99.90;;;;;;5039002;28;1092;-60
2022/09/27 05:08:41;;;;;;;;;;;9.00;99.90;;;;;;5055262;28;1245;-60
2022/09/27 05:11:17;;;;;;;;;;;9.00;99.90;;;;;;5056568;28;885;-60
2022/09/27 05:14:03;;;;;;;;;;;9.00;99.90;;;;;;5038555;28;1910;-60
2022/09/27 05:16:29;;;;;;;;;;;9.00;99.90;;;;;;5039215;28;953;-60
2022/09/27 05:19:15;;;;;;;;;;;9.00;99.90;;;;;;5049125;28;1151;-59
2022/09/27 05:21:59;;;;;;;;;;;9.00;99.90;;;;;;5035646;28;1088;-60
2022/09/27 05:24:27;;;;;;;;;;;9.00;99.90;;;;;;5018411;28;1038;-60
2022/09/27 05:26:53;;;;;;;;;;;9.00;99.90;;;;;;5022962;28;1148;-60
2022/09/27 05:29:19;;;;;;;;;;;9.10;99.90;;;;;;5038295;28;945;-60
2022/09/27 05:31:57;;;;;;;;;;;9.00;99.90;;;;;;5017271;28;1626;-60
2022/09/27 05:34:23;;;;;;;;;;;9.10;99.90;;;;;;5035893;28;1918;-60
2022/09/27 05:36:57;;;;;;;;;;;9.10;99.90;;;;;;5032569;28;1242;-60
2022/09/27 05:39:23;;;;;;;;;;;9.10;99.90;;;;;;5053341;28;1260;-60
2022/09/27 05:41:49;;;;;;;;;;;9.10;99.90;;;;;;5011227;28;1248;-60
2022/09/27 05:44:15;;;;;;;;;;;9.00;99.90;;;;;;5027669;28;1427;-60
2022/09/27 05:46:48;;;;;;;;;;;9.00;99.90;;;;;;5026245;28;1318;-60
2022/09/27 05:49:14;;;;;;;;;;;9.00;99.90;;;;;;5035568;28;1236;-60
2022/09/27 05:51:40;;;;;;;;;;;9.00;99.90;;;;;;5009656;28;1265;-60
2022/09/27 05:54:06;;;;;;;;;;;9.00;99.90;;;;;;4997599;28;1910;-59
2022/09/27 05:56:32;;;;;;;;;;;9.00;99.90;;;;;;5018279;28;1464;-60
2022/09/27 05:59:16;;;;;;;;;;;9.00;99.90;;;;;;5018372;28;859;-60
2022/09/27 06:02:08;;;;;;;;;;;9.00;99.90;;;;;;5035654;28;1261;-60
2022/09/27 06:04:40;;;;;;;;;;;9.00;99.90;;;;;;5036147;28;949;-60
2022/09/27 06:07:32;;;;;;;;;;;9.00;99.90;;;;;;5035233;28;1203;-60
2022/09/27 06:09:59;;;;;;;;;;;9.00;99.90;;;;;;5017904;28;965;-60
2022/09/27 06:12:24;;;;;;;;;;;9.00;99.90;;;;;;5041178;28;1139;-60
2022/09/27 06:14:50;;;;;;;;;;;9.00;99.90;;;;;;5008830;28;1906;-60
2022/09/27 06:17:29;;;;;;;;;;;9.00;99.90;;;;;;5015935;28;1222;-60
2022/09/27 06:19:54;;;;;;;;;;;9.00;99.90;;;;;;5002246;28;1348;-60
2022/09/27 06:22:22;;;;;;;;;;;9.00;99.90;;;;;;5027534;28;1350;-60
2022/09/27 06:24:56;;;;;;;;;;;9.10;99.90;;;;;;5001463;28;1657;-60
2022/09/27 06:27:25;;;;;;;;;;;9.10;99.90;;;;;;5034761;28;992;-60
2022/09/27 06:30:06;;;;;;;;;;;9.10;99.90;;;;;;5032593;28;1223;-60
2022/09/27 06:32:45;;;;;;;;;;;9.10;99.90;;;;;;5026180;28;1582;-60
2022/09/27 06:35:17;;;;;;;;;;;9.20;99.90;;;;;;5032059;28;1981;-60
2022/09/27 06:37:43;;;;;;;;;;;9.20;99.90;;;;;;5017702;28;1147;-60
2022/09/27 06:40:09;;;;;;;;;;;9.30;99.90;;;;;;5017967;28;1049;-60
2022/09/27 06:43:00;;;;;;;;;;;9.30;99.90;;;;;;5033424;28;1043;-60
2022/09/27 06:45:48;;;;;;;;;;;9.30;99.90;;;;;;5017168;28;1177;-60
2022/09/27 06:48:40;;;;;;;;;;;9.40;99.90;;;;;;5000782;28;1033;-60
2022/09/27 06:51:14;;;;;;;;;;;9.40;99.90;;;;;;5033943;28;1024;-60
2022/09/27 06:53:41;;;;;;;;;;;9.40;99.90;;;;;;5017098;28;1094;-60
2022/09/27 06:56:07;;;;;;;;;;;9.40;99.90;;;;;;5016505;28;2962;-60
2022/09/27 07:01:43;;;;;;;;;;;9.50;99.90;;;;;;5025808;28;1244;-60
2022/09/27 07:04:28;;;;;;;;;;;9.50;99.90;;;;;;5040877;28;1170;-60
2022/09/27 07:07:08;;;;;;;;;;;9.60;99.90;;;;;;5036606;28;1095;-60
2022/09/27 07:09:39;;;;;;;;;;;9.60;99.90;;;;;;5020554;28;890;-60
2022/09/27 07:12:05;;;;;;;;;;;9.70;99.90;;;;;;5036135;28;1074;-60
2022/09/27 07:14:33;;;;;;;;;;;9.70;99.90;;;;;;5053937;28;1914;-60
2022/09/27 07:16:59;;;;;;;;;;;9.80;99.90;;;;;;5036381;28;847;-60
2022/09/27 07:19:29;;;;;;;;;;;9.80;99.90;;;;;;5032289;28;1765;-60
2022/09/27 07:21:55;;;;;;;;;;;9.80;99.90;;;;;;5021229;28;1176;-60
2022/09/27 07:24:22;;;;;;;;;;;9.90;99.90;;;;;;5036240;28;1028;-60
2022/09/27 07:26:48;;;;;;;;;;;9.80;99.90;;;;;;5036229;28;1005;-60
2022/09/27 07:29:16;;;;;;;;;;;9.90;99.90;;;;;;5053131;28;961;-60
2022/09/27 07:31:42;;;;;;;;;;;9.90;99.90;;;;;;5025518;28;1635;-59
2022/09/27 07:34:10;;;;;;;;;;;9.90;99.90;;;;;;4999975;28;1918;-60
2022/09/27 07:36:36;;;;;;;;;;;9.90;99.90;;;;;;5032757;28;1314;-60
2022/09/27 07:39:02;;;;;;;;;;;9.90;99.90;;;;;;5032526;28;1215;-60
2022/09/27 07:41:31;;;;;;;;;;;10.00;99.90;;;;;;5032762;28;1283;-60
2022/09/27 07:43:56;;;;;;;;;;;9.90;99.90;;;;;;5033717;28;1009;-60
2022/09/27 07:46:23;;;;;;;;;;;9.90;99.90;;;;;;5015881;28;1092;-60
2022/09/27 07:49:05;;;;;;;;;;;9.90;99.90;;;;;;5043565;28;1159;-60
2022/09/27 07:51:39;;;;;;;;;;;9.90;99.90;;;;;;5036352;28;1084;-60
2022/09/27 07:54:09;;;;;;;;;;;9.80;99.90;;;;;;5042933;28;1973;-59
2022/09/27 07:56:46;;;;;;;;;;;9.80;99.90;;;;;;4999561;28;1253;-60
2022/09/27 07:59:14;;;;;;;;;;;9.70;99.90;;;;;;5010584;28;1342;-60
2022/09/27 08:01:40;;;;;;;;;;;9.70;99.90;;;;;;5015823;28;1261;-60
2022/09/27 08:04:06;;;;;;;;;;;9.60;99.90;;;;;;5033986;28;876;-60
2022/09/27 08:06:32;;;;;;;;;;;9.60;99.90;;;;;;5019929;28;1175;-61
2022/09/27 08:08:58;;;;;;;;;;;9.50;99.90;;;;;;5007594;28;1383;-60
2022/09/27 08:11:26;;;;;;;;;;;9.50;99.90;;;;;;5024149;28;1255;-60
2022/09/27 08:13:52;;;;;;;;;;;9.40;99.90;;;;;;4990774;28;1918;-61
2022/09/27 08:16:21;;;;;;;;;;;9.40;99.90;;;;;;5006775;28;1232;-60
2022/09/27 08:19:08;;;;;;;;;;;9.40;99.90;;;;;;5014939;28;1309;-60
2022/09/27 08:21:40;;;;;;;;;;;9.50;99.90;;;;;;5029206;28;3087;-60
2022/09/27 08:24:14;;;;;;;;;;;9.60;99.90;;;;;;5009555;28;3169;-60
2022/09/27 08:27:00;;;;;;;;;;;9.70;99.90;;;;;;5000093;28;1321;-60
2022/09/27 08:29:40;;;;;;;;;;;9.80;99.90;;;;;;4999107;28;3106;-60
2022/09/27 08:32:07;;;;;;;;;;;9.80;99.90;;;;;;4998832;28;1320;-60
2022/09/27 08:34:33;;;;;;;;;;;9.80;99.90;;;;;;5019778;28;1981;-60
2022/09/27 08:36:59;;;;;;;;;;;9.90;99.90;;;;;;5019913;28;1232;-60
2022/09/27 08:39:25;;;;;;;;;;;10.00;99.90;;;;;;5015603;28;1253;-60
2022/09/27 08:41:54;;;;;;;;;;;10.10;99.90;;;;;;5021109;28;3268;-60
2022/09/27 08:44:42;;;;;;;;;;;10.20;99.90;;;;;;5052721;28;1130;-60
2022/09/27 08:47:17;;;;;;;;;;;10.30;99.90;;;;;;5017583;28;1264;-60
2022/09/27 08:49:55;;;;;;;;;;;10.40;99.90;;;;;;5014655;28;1178;-61
2022/09/27 08:52:26;;;;;;;;;;;10.50;99.90;;;;;;5019417;28;1215;-61
2022/09/27 08:54:52;;;;;;;;;;;10.70;99.90;;;;;;5035463;28;1914;-60
2022/09/27 08:57:18;;;;;;;;;;;11.10;99.90;;;;;;5052180;28;1075;-60
2022/09/27 08:59:48;;;;;;;;;;;11.20;99.90;;;;;;5038595;28;1143;-60
2022/09/27 09:02:16;;;;;;;;;;;11.40;99.90;;;;;;5038713;28;1135;-61
2022/09/27 09:04:46;;;;;;;;;;;11.40;99.90;;;;;;5038888;28;863;-61
2022/09/27 09:07:11;;;;;;;;;;;11.30;99.90;;;;;;5013819;28;1287;-60
2022/09/27 09:09:45;;;;;;;;;;;11.60;99.90;;;;;;5024077;28;1729;-61
2022/09/27 09:15:05;;;;;;;;;;;11.90;99.90;;;;;;5036975;28;1967;-61
2022/09/27 09:17:40;;;;;;;;;;;12.00;99.90;;;;;;5023543;28;1720;-61
2022/09/27 09:20:23;;;;;;;;;;;12.00;99.90;;;;;;5023137;28;1487;-61
2022/09/27 09:22:57;;;;;;;;;;;11.90;99.90;;;;;;5019136;28;966;-61
2022/09/27 09:25:28;;;;;;;;;;;11.90;99.90;;;;;;5019097;28;1661;-61
2022/09/27 09:27:53;;;;;;;;;;;12.10;99.90;;;;;;5006762;28;1144;-61
2022/09/27 09:30:21;;;;;;;;;;;12.10;99.90;;;;;;5018856;28;1045;-61
2022/09/27 09:33:12;;;;;;;;;;;12.10;99.90;;;;;;5002106;28;1299;-61
2022/09/27 09:35:40;;;;;;;;;;;12.10;99.90;;;;;;5025082;28;1966;-61
2022/09/27 09:38:11;;;;;;;;;;;12.20;99.90;;;;;;5013433;28;1484;-61
2022/09/27 09:40:45;;;;;;;;;;;12.30;99.90;;;;;;5018394;28;1409;-61
2022/09/27 09:43:17;;;;;;;;;;;12.40;99.90;;;;;;5018718;28;1622;-61
2022/09/27 09:45:46;;;;;;;;;;;12.80;99.90;;;;;;5014665;28;3379;-61
2022/09/27 09:48:30;;;;;;;;;;;13.00;99.90;;;;;;5017332;28;3305;-61
2022/09/27 09:50:58;;;;;;;;;;;13.20;99.90;;;;;;5015248;28;1358;-61
2022/09/27 09:53:35;;;;;;;;;;;13.20;99.90;;;;;;5013263;28;3718;-61
2022/09/27 09:56:04;;;;;;;;;;;12.80;99.90;;;;;;5001531;28;1973;-61
2022/09/27 09:58:38;;;;;;;;;;;12.70;99.90;;;;;;5018560;28;1079;-61
2022/09/27 10:01:19;;;;;;;;;;;12.80;99.90;;;;;;5018085;28;926;-61
2022/09/27 10:03:45;;;;;;;;;;;12.70;99.90;;;;;;5032462;28;3506;-60
2022/09/27 10:06:13;;;;;;;;;;;12.50;99.90;;;;;;5023478;28;3203;-61
2022/09/27 10:08:39;;;;;;;;;;;12.40;99.90;;;;;;5017564;28;1073;-60
2022/09/27 10:11:31;;;;;;;;;;;12.20;99.90;;;;;;5024801;28;3437;-61
2022/09/27 10:14:09;;;;;;;;;;;12.50;99.90;;;;;;5012534;28;1906;-61
2022/09/27 10:16:35;;;;;;;;;;;12.80;99.90;;;;;;5034371;28;1550;-61
2022/09/27 10:19:02;;;;;;;;;;;12.70;99.90;;;;;;5017645;28;1317;-61
2022/09/27 10:21:28;;;;;;;;;;;12.60;99.90;;;;;;5018767;28;1223;-60
2022/09/27 10:24:07;;;;;;;;;;;12.60;99.90;;;;;;5017474;28;3104;-61
2022/09/27 10:26:57;;;;;;;;;;;12.70;99.90;;;;;;5017015;28;1222;-60
2022/09/27 10:29:23;;;;;;;;;;;12.80;99.90;;;;;;5033546;28;1135;-60
2022/09/27 10:31:49;;;;;;;;;;;12.90;99.90;;;;;;5022624;28;1361;-61
2022/09/27 10:34:28;;;;;;;;;;;13.30;99.90;;;;;;5034701;28;1902;-61
2022/09/27 10:37:03;;;;;;;;;;;13.30;99.90;;;;;;5000637;28;1009;-61
2022/09/27 10:39:29;;;;;;;;;;;12.80;99.90;;;;;;5022765;28;1183;-60
2022/09/27 10:41:56;;;;;;;;;;;12.80;99.90;;;;;;5053710;28;873;-60
2022/09/27 10:44:31;;;;;;;;;;;12.50;99.90;;;;;;5037288;28;1138;-61
2022/09/27 10:47:21;;;;;;;;;;;12.40;99.90;;;;;;5020790;28;1117;-60
2022/09/27 10:50:16;;;;;;;;;;;12.30;99.90;;;;;;4997229;28;1080;-61
2022/09/27 10:53:05;;;;;;;;;;;12.50;99.90;;;;;;5001888;28;1109;-61
2022/09/27 10:55:33;;;;;;;;;;;12.70;99.90;;;;;;5034156;28;1906;-61
2022/09/27 10:58:00;;;;;;;;;;;12.70;99.90;;;;;;5008888;28;3312;-60
2022/09/27 11:00:31;;;;;;;;;;;12.40;99.90;;;;;;5023820;28;3468;-60
2022/09/27 11:02:59;;;;;;;;;;;12.20;99.90;;;;;;4997355;28;1021;-61
2022/09/27 11:05:32;;;;;;;;;;;12.10;99.90;;;;;;5016524;28;3450;-61
2022/09/27 11:08:01;;;;;;;;;;;12.10;99.90;;;;;;5036424;28;1000;-61
2022/09/27 11:10:39;;;;;;;;;;;12.10;99.90;;;;;;5020117;28;1103;-61
2022/09/27 11:13:05;;;;;;;;;;;12.00;99.90;;;;;;5053354;28;1079;-61
2022/09/27 11:15:36;;;;;;;;;;;12.00;99.90;;;;;;5033530;28;3411;-61
2022/09/27 11:18:08;;;;;;;;;;;11.80;99.90;;;;;;5021347;28;1634;-60
2022/09/27 11:20:38;;;;;;;;;;;11.70;99.90;;;;;;5015665;28;1631;-60
2022/09/27 11:23:08;;;;;;;;;;;11.70;99.90;;;;;;5033665;28;1111;-60
2022/09/27 11:25:40;;;;;;;;;;;11.90;99.90;;;;;;4986138;28;1195;-60
2022/09/27 11:28:14;;;;;;;;;;;12.10;99.90;;;;;;5016599;28;869;-60
2022/09/27 11:30:40;;;;;;;;;;;12.60;99.90;;;;;;5016182;28;1057;-60
2022/09/27 11:33:30;;;;;;;;;;;13.10;99.90;;;;;;5045882;28;1602;-60
2022/09/27 11:35:57;;;;;;;;;;;13.60;99.90;;;;;;5053085;28;1969;-61
2022/09/27 11:38:29;;;;;;;;;;;14.10;99.90;;;;;;5052886;28;969;-61
2022/09/27 11:41:02;;;;;;;;;;;14.30;99.90;;;;;;5017871;28;1158;-60
2022/09/27 11:43:35;;;;;;;;;;;14.80;99.90;;;;;;5030613;28;3286;-61
2022/09/27 11:46:07;;;;;;;;;;;14.60;99.90;;;;;;5032184;28;3424;-60
2022/09/27 11:48:45;;;;;;;;;;;15.00;99.90;;;;;;5016292;28;3489;-60
2022/09/27 11:51:21;;;;;;;;;;;15.40;99.90;;;;;;5032044;28;1202;-61
2022/09/27 11:53:48;;;;;;;;;;;15.70;99.90;;;;;;5015958;28;1339;-61
2022/09/27 11:56:26;;;;;;;;;;;15.80;99.90;;;;;;5032661;28;1914;-60
2022/09/27 11:58:59;;;;;;;;;;;15.40;99.90;;;;;;5015405;28;1339;-61
2022/09/27 12:01:32;;;;;;;;;;;15.00;99.90;;;;;;4996650;28;3576;-61
2022/09/27 12:04:16;;;;;;;;;;;14.50;99.90;;;;;;5014333;28;890;-60
2022/09/27 12:06:42;;;;;;;;;;;14.40;99.90;;;;;;5003569;28;1598;-61
2022/09/27 12:09:10;;;;;;;;;;;14.40;99.90;;;;;;5032179;28;1131;-60
2022/09/27 12:11:47;;;;;;;;;;;14.30;99.90;;;;;;5034448;28;1565;-60
2022/09/27 12:14:14;;;;;;;;;;;14.40;99.90;;;;;;5015074;28;1918;-60
2022/09/27 12:16:41;;;;;;;;;;;14.70;99.90;;;;;;5031628;28;1316;-60
2022/09/27 12:19:13;;;;;;;;;;;14.80;99.90;;;;;;4999042;28;1576;-60
2022/09/27 12:21:53;;;;;;;;;;;14.60;99.90;;;;;;4995660;28;1752;-60
2022/09/27 12:24:20;;;;;;;;;;;14.50;99.90;;;;;;5005584;28;3493;-60
2022/09/27 12:26:59;;;;;;;;;;;14.00;99.90;;;;;;5026827;28;3528;-60
2022/09/27 12:29:29;;;;;;;;;;;13.40;99.90;;;;;;4998652;28;929;-60
2022/09/27 12:31:55;;;;;;;;;;;12.80;99.90;;;;;;5030926;28;3804;-60
2022/09/27 12:34:31;;;;;;;;;;;12.50;99.90;;;;;;5035439;28;3463;-61
2022/09/27 12:37:01;;;;;;;;;;;12.30;99.90;;;;;;5019171;28;3475;-60
2022/09/27 12:39:36;;;;;;;;;;;12.50;99.90;;;;;;5019896;28;1064;-61
2022/09/27 12:42:18;;;;;;;;;;;12.80;99.90;;;;;;5018299;28;953;-60
2022/09/27 12:44:46;;;;;;;;;;;13.60;99.90;;;;;;5018953;28;1167;-60
2022/09/27 12:47:24;;;;;;;;;;;14.00;99.90;;;;;;5019488;28;1009;-60
2022/09/27 12:49:58;;;;;;;;;;;14.00;99.90;;;;;;5019302;28;902;-60
2022/09/27 12:52:27;;;;;;;;;;;13.80;99.90;;;;;;5035676;28;1211;-60
2022/09/27 12:55:10;;;;;;;;;;;13.40;99.90;;;;;;5018770;28;1914;-61
2022/09/27 12:57:49;;;;;;;;;;;13.00;99.90;;;;;;5036825;28;1020;-61
2022/09/27 13:00:18;;;;;;;;;;;12.70;99.90;;;;;;5003279;28;1434;-60
2022/09/27 13:02:51;;;;;;;;;;;12.70;99.90;;;;;;5018645;28;1191;-60
2022/09/27 13:05:21;;;;;;;;;;;12.90;99.90;;;;;;5019244;28;1076;-60
2022/09/27 13:08:11;;;;;;;;;;;13.40;99.90;;;;;;5019363;28;1104;-60
2022/09/27 13:10:38;;;;;;;;;;;14.30;99.90;;;;;;5029148;28;1400;-60
2022/09/27 13:13:19;;;;;;;;;;;15.20;99.90;;;;;;5039240;28;1047;-60
2022/09/27 13:15:46;;;;;;;;;;;16.10;99.90;;;;;;5038344;28;1959;-60
2022/09/27 13:18:31;;;;;;;;;;;16.50;99.90;;;;;;5036272;28;1732;-60
2022/09/27 13:20:57;;;;;;;;;;;16.70;99.90;;;;;;5018698;28;1690;-60
2022/09/27 13:23:34;;;;;;;;;;;16.70;99.90;;;;;;5018672;28;1134;-61
2022/09/27 13:26:02;;;;;;;;;;;16.30;99.90;;;;;;5018666;28;1017;-60
2022/09/27 13:28:35;;;;;;;;;;;16.20;99.90;;;;;;5016270;28;3255;-60
2022/09/27 13:31:06;;;;;;;;;;;15.60;99.90;;;;;;4999165;28;3419;-60
2022/09/27 13:33:42;;;;;;;;;;;15.00;99.90;;;;;;5001800;28;3007;-60
2022/09/27 13:36:15;;;;;;;;;;;14.60;99.90;;;;;;5036731;28;1906;-60
2022/09/27 13:38:50;;;;;;;;;;;14.20;99.90;;;;;;5038014;28;1016;-60
2022/09/27 13:41:18;;;;;;;;;;;14.00;99.90;;;;;;5038681;28;925;-60
2022/09/27 13:44:06;;;;;;;;;;;13.90;99.90;;;;;;5037375;28;861;-60
2022/09/27 13:46:47;;;;;;;;;;;13.80;99.90;;;;;;5037777;28;1135;-60
2022/09/27 13:49:17;;;;;;;;;;;14.30;99.90;;;;;;5001821;28;3375;-60
2022/09/27 13:52:19;;;;;;;;;;;14.70;99.90;;;;;;4999703;28;3645;-61
2022/09/27 13:54:51;;;;;;;;;;;15.50;99.90;;;;;;5037850;28;3154;-60
2022/09/27 13:57:37;;;;;;;;;;;15.80;99.90;;;;;;5018109;28;1013;-60
2022/09/27 14:00:07;;;;;;;;;;;16.00;99.90;;;;;;5017954;28;845;-61
2022/09/27 14:02:58;;;;;;;;;;;16.50;99.90;;;;;;5038332;28;1123;-60
2022/09/27 14:05:27;;;;;;;;;;;16.60;99.90;;;;;;5020599;28;1013;-61
2022/09/27 14:07:54;;;;;;;;;;;15.80;99.90;;;;;;5020644;28;3410;-61
2022/09/27 14:10:22;;;;;;;;;;;15.80;99.90;;;;;;5015170;28;945;-61
2022/09/27 14:12:50;;;;;;;;;;;15.30;99.90;;;;;;5024629;28;1478;-61
2022/09/27 14:15:19;;;;;;;;;;;14.60;99.90;;;;;;5055337;28;1977;-60
2022/09/27 14:17:46;;;;;;;;;;;13.90;99.90;;;;;;5021663;28;1692;-60
2022/09/27 14:20:33;;;;;;;;;;;13.40;99.90;;;;;;5018072;28;1610;-60
2022/09/27 14:23:01;;;;;;;;;;;12.90;99.90;;;;;;5036306;28;1259;-60
2022/09/27 14:25:31;;;;;;;;;;;12.70;99.90;;;;;;5017864;28;985;-60
2022/09/27 14:27:59;;;;;;;;;;;12.50;99.90;;;;;;5033095;28;1056;-60
2022/09/27 14:30:35;;;;;;;;;;;12.30;99.90;;;;;;5049458;28;1230;-60
2022/09/27 14:33:26;;;;;;;;;;;12.10;99.90;;;;;;5018744;28;1299;-61
2022/09/27 14:38:37;;;;;;;;;;;11.90;99.90;;;;;;5032611;28;1727;-61
2022/09/27 14:41:08;;;;;;;;;;;11.80;99.90;;;;;;5036300;28;1160;-61
2022/09/27 14:43:35;;;;;;;;;;;11.70;99.90;;;;;;5044442;28;1352;-61
2022/09/27 14:46:05;;;;;;;;;;;11.60;99.90;;;;;;5034288;28;1279;-60
2022/09/27 14:48:32;;;;;;;;;;;11.60;99.90;;;;;;5036420;28;1209;-60
2022/09/27 14:51:00;;;;;;;;;;;11.50;99.90;;;;;;5034235;28;1133;-60
2022/09/27 14:53:27;;;;;;;;;;;11.40;99.90;;;;;;5016692;28;1237;-61
2022/09/27 14:55:54;;;;;;;;;;;11.40;99.90;;;;;;5032762;28;1918;-61
2022/09/27 14:58:20;;;;;;;;;;;11.30;99.90;;;;;;5034757;28;961;-61
2022/09/27 15:00:48;;;;;;;;;;;11.20;99.90;;;;;;5034863;28;818;-61
2022/09/27 15:03:19;;;;;;;;;;;11.10;99.90;;;;;;5033999;28;1045;-61
2022/09/27 15:05:45;;;;;;;;;;;10.90;99.90;;;;;;5028763;28;1251;-60
2022/09/27 15:08:14;;;;;;;;;;;10.80;99.90;;;;;;5054469;28;965;-60
2022/09/27 15:10:40;;;;;;;;;;;10.70;99.90;;;;;;5036538;28;1072;-60
2022/09/27 15:13:06;;;;;;;;;;;10.70;99.90;;;;;;5054833;28;1016;-60
2022/09/27 15:15:34;;;;;;;;;;;10.60;99.90;;;;;;5053558;28;1910;-60
2022/09/27 15:18:00;;;;;;;;;;;10.60;99.90;;;;;;5017377;28;1515;-60
2022/09/27 15:20:27;;;;;;;;;;;10.60;99.90;;;;;;5034752;28;1653;-61